sensor_id;sensor_type;location;lat;lon;timestamp;temperature;humidity
6841;DHT22;3458;53.678;14.080;2023-07-13T00:00:17;22.10;65.80
6841;DHT22;3458;53.678;14.080;2023-07-13T00:02:43;22.00;65.80
6841;DHT22;3458;53.678;14.080;2023-07-13T00:05:09;22.00;66.30
6841;DHT22;3458;53.678;14.080;2023-07-13T00:07:35;22.00;66.80
6841;DHT22;3458;53.678;14.080;2023-07-13T00:10:01;22.00;66.90
6841;DHT22;3458;53.678;14.080;2023-07-13T00:12:37;21.90;67.10
6841;DHT22;3458;53.678;14.080;2023-07-13T00:15:12;21.90;67.30
6841;DHT22;3458;53.678;14.080;2023-07-13T00:17:38;21.90;67.80
6841;DHT22;3458;53.678;14.080;2023-07-13T00:20:04;21.90;68.20
6841;DHT22;3458;53.678;14.080;2023-07-13T00:22:30;21.90;68.10
6841;DHT22;3458;53.678;14.080;2023-07-13T00:24:56;21.90;68.00
6841;DHT22;3458;53.678;14.080;2023-07-13T00:27:22;21.90;67.90
6841;DHT22;3458;53.678;14.080;2023-07-13T00:29:48;21.90;67.90
6841;DHT22;3458;53.678;14.080;2023-07-13T00:32:14;21.80;68.40
6841;DHT22;3458;53.678;14.080;2023-07-13T00:34:39;21.80;68.70
6841;DHT22;3458;53.678;14.080;2023-07-13T00:37:06;21.80;68.70
6841;DHT22;3458;53.678;14.080;2023-07-13T00:39:35;21.80;68.60
6841;DHT22;3458;53.678;14.080;2023-07-13T00:42:02;21.80;68.50
6841;DHT22;3458;53.678;14.080;2023-07-13T00:44:28;21.80;68.40
6841;DHT22;3458;53.678;14.080;2023-07-13T00:46:54;21.80;68.70
6841;DHT22;3458;53.678;14.080;2023-07-13T00:49:25;21.80;69.20
6841;DHT22;3458;53.678;14.080;2023-07-13T00:52:00;21.80;69.10
6841;DHT22;3458;53.678;14.080;2023-07-13T00:54:30;21.80;68.90
6841;DHT22;3458;53.678;14.080;2023-07-13T00:56:59;21.80;68.90
6841;DHT22;3458;53.678;14.080;2023-07-13T00:59:26;21.80;69.10
6841;DHT22;3458;53.678;14.080;2023-07-13T01:01:52;21.70;68.90
6841;DHT22;3458;53.678;14.080;2023-07-13T01:04:17;21.70;69.30
6841;DHT22;3458;53.678;14.080;2023-07-13T01:06:44;21.70;69.40
6841;DHT22;3458;53.678;14.080;2023-07-13T01:09:11;21.70;70.20
6841;DHT22;3458;53.678;14.080;2023-07-13T01:11:37;21.70;70.30
6841;DHT22;3458;53.678;14.080;2023-07-13T01:14:03;21.70;70.40
6841;DHT22;3458;53.678;14.080;2023-07-13T01:16:31;21.70;70.90
6841;DHT22;3458;53.678;14.080;2023-07-13T01:18:57;21.70;70.90
6841;DHT22;3458;53.678;14.080;2023-07-13T01:21:24;21.60;70.90
6841;DHT22;3458;53.678;14.080;2023-07-13T01:23:50;21.60;70.70
6841;DHT22;3458;53.678;14.080;2023-07-13T01:26:15;21.50;70.90
6841;DHT22;3458;53.678;14.080;2023-07-13T01:28:41;21.50;71.00
6841;DHT22;3458;53.678;14.080;2023-07-13T01:31:06;21.40;71.60
6841;DHT22;3458;53.678;14.080;2023-07-13T01:33:33;21.30;71.80
6841;DHT22;3458;53.678;14.080;2023-07-13T01:35:59;21.20;72.70
6841;DHT22;3458;53.678;14.080;2023-07-13T01:38:25;21.30;73.50
6841;DHT22;3458;53.678;14.080;2023-07-13T01:40:51;21.30;73.50
6841;DHT22;3458;53.678;14.080;2023-07-13T01:43:18;21.30;73.60
6841;DHT22;3458;53.678;14.080;2023-07-13T01:45:44;21.40;73.70
6841;DHT22;3458;53.678;14.080;2023-07-13T01:48:10;21.40;73.70
6841;DHT22;3458;53.678;14.080;2023-07-13T01:50:36;21.40;74.00
6841;DHT22;3458;53.678;14.080;2023-07-13T01:53:01;21.40;74.30
6841;DHT22;3458;53.678;14.080;2023-07-13T01:55:27;21.30;73.80
6841;DHT22;3458;53.678;14.080;2023-07-13T01:57:53;21.20;74.10
6841;DHT22;3458;53.678;14.080;2023-07-13T02:00:19;21.20;74.50
6841;DHT22;3458;53.678;14.080;2023-07-13T02:02:44;21.20;74.80
6841;DHT22;3458;53.678;14.080;2023-07-13T02:05:11;21.20;75.00
6841;DHT22;3458;53.678;14.080;2023-07-13T02:07:37;21.10;75.40
6841;DHT22;3458;53.678;14.080;2023-07-13T02:10:02;21.20;75.60
6841;DHT22;3458;53.678;14.080;2023-07-13T02:12:28;21.20;75.70
6841;DHT22;3458;53.678;14.080;2023-07-13T02:14:54;21.10;75.90
6841;DHT22;3458;53.678;14.080;2023-07-13T02:17:19;21.10;75.90
6841;DHT22;3458;53.678;14.080;2023-07-13T02:19:45;21.00;76.40
6841;DHT22;3458;53.678;14.080;2023-07-13T02:22:10;21.00;76.90
6841;DHT22;3458;53.678;14.080;2023-07-13T02:24:36;21.10;77.30
6841;DHT22;3458;53.678;14.080;2023-07-13T02:27:01;21.10;77.70
6841;DHT22;3458;53.678;14.080;2023-07-13T02:29:26;21.10;77.80
6841;DHT22;3458;53.678;14.080;2023-07-13T02:31:52;21.10;78.30
6841;DHT22;3458;53.678;14.080;2023-07-13T02:34:17;21.00;77.70
6841;DHT22;3458;53.678;14.080;2023-07-13T02:36:43;20.90;78.50
6841;DHT22;3458;53.678;14.080;2023-07-13T02:39:09;20.90;79.10
6841;DHT22;3458;53.678;14.080;2023-07-13T02:41:36;20.90;79.50
6841;DHT22;3458;53.678;14.080;2023-07-13T02:44:02;20.90;79.50
6841;DHT22;3458;53.678;14.080;2023-07-13T02:46:30;20.90;79.60
6841;DHT22;3458;53.678;14.080;2023-07-13T02:48:56;20.90;79.90
6841;DHT22;3458;53.678;14.080;2023-07-13T02:51:21;20.90;79.70
6841;DHT22;3458;53.678;14.080;2023-07-13T02:53:46;20.80;80.20
6841;DHT22;3458;53.678;14.080;2023-07-13T02:56:12;20.80;80.30
6841;DHT22;3458;53.678;14.080;2023-07-13T02:58:38;20.70;80.80
6841;DHT22;3458;53.678;14.080;2023-07-13T03:01:08;20.80;81.20
6841;DHT22;3458;53.678;14.080;2023-07-13T03:03:35;20.80;81.70
6841;DHT22;3458;53.678;14.080;2023-07-13T03:06:02;20.80;82.20
6841;DHT22;3458;53.678;14.080;2023-07-13T03:08:28;20.80;82.40
6841;DHT22;3458;53.678;14.080;2023-07-13T03:11:02;20.80;82.00
6841;DHT22;3458;53.678;14.080;2023-07-13T03:13:28;20.70;82.00
6841;DHT22;3458;53.678;14.080;2023-07-13T03:15:53;20.80;82.50
6841;DHT22;3458;53.678;14.080;2023-07-13T03:18:19;20.70;82.50
6841;DHT22;3458;53.678;14.080;2023-07-13T03:20:44;20.70;82.70
6841;DHT22;3458;53.678;14.080;2023-07-13T03:23:10;20.60;82.90
6841;DHT22;3458;53.678;14.080;2023-07-13T03:25:35;20.70;83.30
6841;DHT22;3458;53.678;14.080;2023-07-13T03:28:01;20.70;83.70
6841;DHT22;3458;53.678;14.080;2023-07-13T03:30:26;20.70;84.00
6841;DHT22;3458;53.678;14.080;2023-07-13T03:32:52;20.70;84.00
6841;DHT22;3458;53.678;14.080;2023-07-13T03:35:17;20.70;84.00
6841;DHT22;3458;53.678;14.080;2023-07-13T03:37:43;20.60;83.90
6841;DHT22;3458;53.678;14.080;2023-07-13T03:40:09;20.60;84.20
6841;DHT22;3458;53.678;14.080;2023-07-13T03:42:35;20.60;84.80
6841;DHT22;3458;53.678;14.080;2023-07-13T03:45:01;20.60;84.80
6841;DHT22;3458;53.678;14.080;2023-07-13T03:47:26;20.60;84.90
6841;DHT22;3458;53.678;14.080;2023-07-13T03:49:52;20.60;85.00
6841;DHT22;3458;53.678;14.080;2023-07-13T03:52:17;20.70;85.60
6841;DHT22;3458;53.678;14.080;2023-07-13T03:54:43;20.70;85.70
6841;DHT22;3458;53.678;14.080;2023-07-13T03:57:08;20.70;85.90
6841;DHT22;3458;53.678;14.080;2023-07-13T03:59:34;20.60;85.90
6841;DHT22;3458;53.678;14.080;2023-07-13T04:02:00;20.60;86.20
6841;DHT22;3458;53.678;14.080;2023-07-13T04:04:25;20.60;86.50
6841;DHT22;3458;53.678;14.080;2023-07-13T04:06:51;20.60;86.30
6841;DHT22;3458;53.678;14.080;2023-07-13T04:09:18;20.60;86.40
6841;DHT22;3458;53.678;14.080;2023-07-13T04:11:44;20.60;86.40
6841;DHT22;3458;53.678;14.080;2023-07-13T04:14:09;20.60;86.50
6841;DHT22;3458;53.678;14.080;2023-07-13T04:16:35;20.50;86.70
6841;DHT22;3458;53.678;14.080;2023-07-13T04:19:00;20.50;87.10
6841;DHT22;3458;53.678;14.080;2023-07-13T04:21:28;20.60;87.70
6841;DHT22;3458;53.678;14.080;2023-07-13T04:23:54;20.60;88.00
6841;DHT22;3458;53.678;14.080;2023-07-13T04:26:19;20.60;88.40
6841;DHT22;3458;53.678;14.080;2023-07-13T04:28:49;20.50;88.20
6841;DHT22;3458;53.678;14.080;2023-07-13T04:31:15;20.50;89.20
6841;DHT22;3458;53.678;14.080;2023-07-13T04:33:41;20.50;88.60
6841;DHT22;3458;53.678;14.080;2023-07-13T04:36:08;20.50;89.60
6841;DHT22;3458;53.678;14.080;2023-07-13T04:38:35;20.40;89.50
6841;DHT22;3458;53.678;14.080;2023-07-13T04:41:04;20.30;90.50
6841;DHT22;3458;53.678;14.080;2023-07-13T04:43:30;20.30;90.70
6841;DHT22;3458;53.678;14.080;2023-07-13T04:45:56;20.40;91.10
6841;DHT22;3458;53.678;14.080;2023-07-13T04:48:22;20.50;90.90
6841;DHT22;3458;53.678;14.080;2023-07-13T04:50:53;20.50;90.90
6841;DHT22;3458;53.678;14.080;2023-07-13T04:53:19;20.50;90.40
6841;DHT22;3458;53.678;14.080;2023-07-13T04:55:44;20.50;91.00
6841;DHT22;3458;53.678;14.080;2023-07-13T04:58:10;20.50;90.90
6841;DHT22;3458;53.678;14.080;2023-07-13T05:00:36;20.40;90.90
6841;DHT22;3458;53.678;14.080;2023-07-13T05:03:03;20.40;91.20
6841;DHT22;3458;53.678;14.080;2023-07-13T05:05:28;20.50;91.80
6841;DHT22;3458;53.678;14.080;2023-07-13T05:07:54;20.50;91.90
6841;DHT22;3458;53.678;14.080;2023-07-13T05:10:20;20.60;91.90
6841;DHT22;3458;53.678;14.080;2023-07-13T05:12:45;20.60;91.50
6841;DHT22;3458;53.678;14.080;2023-07-13T05:15:11;20.60;92.20
6841;DHT22;3458;53.678;14.080;2023-07-13T05:17:37;20.50;92.40
6841;DHT22;3458;53.678;14.080;2023-07-13T05:20:05;20.60;92.80
6841;DHT22;3458;53.678;14.080;2023-07-13T05:22:31;20.60;92.80
6841;DHT22;3458;53.678;14.080;2023-07-13T05:24:56;20.50;92.50
6841;DHT22;3458;53.678;14.080;2023-07-13T05:27:22;20.40;93.10
6841;DHT22;3458;53.678;14.080;2023-07-13T05:29:48;20.50;93.50
6841;DHT22;3458;53.678;14.080;2023-07-13T05:32:14;20.50;93.10
6841;DHT22;3458;53.678;14.080;2023-07-13T05:34:40;20.50;93.70
6841;DHT22;3458;53.678;14.080;2023-07-13T05:37:05;20.60;93.90
6841;DHT22;3458;53.678;14.080;2023-07-13T05:39:31;20.60;93.60
6841;DHT22;3458;53.678;14.080;2023-07-13T05:41:56;20.60;93.20
6841;DHT22;3458;53.678;14.080;2023-07-13T05:44:22;20.60;93.90
6841;DHT22;3458;53.678;14.080;2023-07-13T05:46:47;20.70;94.10
6841;DHT22;3458;53.678;14.080;2023-07-13T05:49:13;20.70;93.80
6841;DHT22;3458;53.678;14.080;2023-07-13T05:51:38;20.60;94.30
6841;DHT22;3458;53.678;14.080;2023-07-13T05:54:04;20.70;94.50
6841;DHT22;3458;53.678;14.080;2023-07-13T05:56:29;20.70;94.00
6841;DHT22;3458;53.678;14.080;2023-07-13T05:58:55;20.70;93.90
6841;DHT22;3458;53.678;14.080;2023-07-13T06:01:21;20.70;94.00
6841;DHT22;3458;53.678;14.080;2023-07-13T06:03:47;20.60;93.90
6841;DHT22;3458;53.678;14.080;2023-07-13T06:06:15;20.60;93.90
6841;DHT22;3458;53.678;14.080;2023-07-13T06:08:41;20.70;93.80
6841;DHT22;3458;53.678;14.080;2023-07-13T06:11:18;20.70;93.10
6841;DHT22;3458;53.678;14.080;2023-07-13T06:13:44;20.70;92.60
6841;DHT22;3458;53.678;14.080;2023-07-13T06:16:12;20.70;93.10
6841;DHT22;3458;53.678;14.080;2023-07-13T06:18:39;20.80;92.90
6841;DHT22;3458;53.678;14.080;2023-07-13T06:21:16;20.80;92.60
6841;DHT22;3458;53.678;14.080;2023-07-13T06:23:42;20.80;92.30
6841;DHT22;3458;53.678;14.080;2023-07-13T06:26:07;20.90;92.00
6841;DHT22;3458;53.678;14.080;2023-07-13T06:28:34;20.90;91.40
6841;DHT22;3458;53.678;14.080;2023-07-13T06:31:00;20.90;91.30
6841;DHT22;3458;53.678;14.080;2023-07-13T06:33:25;20.90;91.60
6841;DHT22;3458;53.678;14.080;2023-07-13T06:35:51;21.00;90.80
6841;DHT22;3458;53.678;14.080;2023-07-13T06:38:16;21.00;90.70
6841;DHT22;3458;53.678;14.080;2023-07-13T06:40:42;21.10;90.80
6841;DHT22;3458;53.678;14.080;2023-07-13T06:43:08;21.10;90.10
6841;DHT22;3458;53.678;14.080;2023-07-13T06:45:41;21.10;89.90
6841;DHT22;3458;53.678;14.080;2023-07-13T06:48:06;21.20;89.20
6841;DHT22;3458;53.678;14.080;2023-07-13T06:50:33;21.20;88.00
6841;DHT22;3458;53.678;14.080;2023-07-13T06:52:59;21.20;87.80
6841;DHT22;3458;53.678;14.080;2023-07-13T06:55:25;21.40;87.60
6841;DHT22;3458;53.678;14.080;2023-07-13T06:57:51;21.50;87.70
6841;DHT22;3458;53.678;14.080;2023-07-13T07:00:16;21.50;85.50
6841;DHT22;3458;53.678;14.080;2023-07-13T07:02:42;21.50;84.50
6841;DHT22;3458;53.678;14.080;2023-07-13T07:05:07;21.50;84.00
6841;DHT22;3458;53.678;14.080;2023-07-13T07:07:33;21.50;84.70
6841;DHT22;3458;53.678;14.080;2023-07-13T07:09:58;21.50;86.10
6841;DHT22;3458;53.678;14.080;2023-07-13T07:12:24;21.60;83.60
6841;DHT22;3458;53.678;14.080;2023-07-13T07:14:49;21.50;81.90
6841;DHT22;3458;53.678;14.080;2023-07-13T07:17:15;21.50;82.60
6841;DHT22;3458;53.678;14.080;2023-07-13T07:19:40;21.50;83.10
6841;DHT22;3458;53.678;14.080;2023-07-13T07:22:06;21.60;83.40
6841;DHT22;3458;53.678;14.080;2023-07-13T07:24:32;21.60;82.40
6841;DHT22;3458;53.678;14.080;2023-07-13T07:26:57;21.70;80.60
6841;DHT22;3458;53.678;14.080;2023-07-13T07:29:23;21.80;78.20
6841;DHT22;3458;53.678;14.080;2023-07-13T07:31:51;21.70;76.80
6841;DHT22;3458;53.678;14.080;2023-07-13T07:34:17;21.70;76.10
6841;DHT22;3458;53.678;14.080;2023-07-13T07:36:42;21.70;73.50
6841;DHT22;3458;53.678;14.080;2023-07-13T07:39:08;21.70;74.10
6841;DHT22;3458;53.678;14.080;2023-07-13T07:41:33;21.90;74.70
6841;DHT22;3458;53.678;14.080;2023-07-13T07:43:59;22.00;74.40
6841;DHT22;3458;53.678;14.080;2023-07-13T07:46:24;21.90;74.20
6841;DHT22;3458;53.678;14.080;2023-07-13T07:48:50;22.00;73.40
6841;DHT22;3458;53.678;14.080;2023-07-13T07:51:15;22.00;73.10
6841;DHT22;3458;53.678;14.080;2023-07-13T07:53:41;21.90;73.20
6841;DHT22;3458;53.678;14.080;2023-07-13T07:56:06;22.00;73.90
6841;DHT22;3458;53.678;14.080;2023-07-13T07:58:32;22.00;72.40
6841;DHT22;3458;53.678;14.080;2023-07-13T08:01:03;22.00;71.90
6841;DHT22;3458;53.678;14.080;2023-07-13T08:03:29;21.90;72.00
6841;DHT22;3458;53.678;14.080;2023-07-13T08:05:54;21.90;72.30
6841;DHT22;3458;53.678;14.080;2023-07-13T08:08:20;22.00;73.40
6841;DHT22;3458;53.678;14.080;2023-07-13T08:10:45;22.00;73.80
6841;DHT22;3458;53.678;14.080;2023-07-13T08:13:11;22.10;74.20
6841;DHT22;3458;53.678;14.080;2023-07-13T08:15:37;22.10;73.70
6841;DHT22;3458;53.678;14.080;2023-07-13T08:18:02;22.10;72.90
6841;DHT22;3458;53.678;14.080;2023-07-13T08:20:28;22.10;73.90
6841;DHT22;3458;53.678;14.080;2023-07-13T08:22:53;22.10;71.70
6841;DHT22;3458;53.678;14.080;2023-07-13T08:25:19;22.10;71.70
6841;DHT22;3458;53.678;14.080;2023-07-13T08:27:46;22.10;70.80
6841;DHT22;3458;53.678;14.080;2023-07-13T08:30:11;22.20;68.60
6841;DHT22;3458;53.678;14.080;2023-07-13T08:32:37;22.30;69.90
6841;DHT22;3458;53.678;14.080;2023-07-13T08:35:03;22.30;69.90
6841;DHT22;3458;53.678;14.080;2023-07-13T08:37:29;22.40;69.90
6841;DHT22;3458;53.678;14.080;2023-07-13T08:39:54;22.40;68.60
6841;DHT22;3458;53.678;14.080;2023-07-13T08:42:33;22.40;66.40
6841;DHT22;3458;53.678;14.080;2023-07-13T08:47:43;22.50;67.00
6841;DHT22;3458;53.678;14.080;2023-07-13T08:50:15;22.60;68.10
6841;DHT22;3458;53.678;14.080;2023-07-13T08:52:44;22.70;63.80
6841;DHT22;3458;53.678;14.080;2023-07-13T08:55:15;22.70;64.60
6841;DHT22;3458;53.678;14.080;2023-07-13T08:57:42;22.80;65.90
6841;DHT22;3458;53.678;14.080;2023-07-13T09:00:10;22.90;63.70
6841;DHT22;3458;53.678;14.080;2023-07-13T09:02:51;23.00;63.00
6841;DHT22;3458;53.678;14.080;2023-07-13T09:05:38;23.00;61.00
6841;DHT22;3458;53.678;14.080;2023-07-13T09:11:23;23.10;60.10
6841;DHT22;3458;53.678;14.080;2023-07-13T09:16:39;23.30;60.80
6841;DHT22;3458;53.678;14.080;2023-07-13T09:19:08;23.30;59.20
6841;DHT22;3458;53.678;14.080;2023-07-13T09:21:39;23.20;59.10
6841;DHT22;3458;53.678;14.080;2023-07-13T09:24:35;23.10;58.20
6841;DHT22;3458;53.678;14.080;2023-07-13T09:27:14;23.00;57.80
6841;DHT22;3458;53.678;14.080;2023-07-13T09:29:47;23.20;57.70
6841;DHT22;3458;53.678;14.080;2023-07-13T09:32:15;23.40;57.70
6841;DHT22;3458;53.678;14.080;2023-07-13T09:34:50;23.60;59.80
6841;DHT22;3458;53.678;14.080;2023-07-13T09:37:16;23.60;59.20
6841;DHT22;3458;53.678;14.080;2023-07-13T09:39:42;23.50;59.50
6841;DHT22;3458;53.678;14.080;2023-07-13T09:42:17;23.50;58.00
6841;DHT22;3458;53.678;14.080;2023-07-13T09:44:57;23.40;58.60
6841;DHT22;3458;53.678;14.080;2023-07-13T09:47:29;23.30;58.00
6841;DHT22;3458;53.678;14.080;2023-07-13T09:50:02;23.20;57.60
6841;DHT22;3458;53.678;14.080;2023-07-13T09:52:40;23.10;57.20
6841;DHT22;3458;53.678;14.080;2023-07-13T09:55:35;23.00;57.50
6841;DHT22;3458;53.678;14.080;2023-07-13T09:58:23;23.00;58.10
6841;DHT22;3458;53.678;14.080;2023-07-13T10:00:57;22.90;59.10
6841;DHT22;3458;53.678;14.080;2023-07-13T10:03:26;22.90;59.80
6841;DHT22;3458;53.678;14.080;2023-07-13T10:05:53;22.90;59.70
6841;DHT22;3458;53.678;14.080;2023-07-13T10:08:24;22.90;59.80
6841;DHT22;3458;53.678;14.080;2023-07-13T10:10:58;22.90;60.10
6841;DHT22;3458;53.678;14.080;2023-07-13T10:13:35;23.00;59.90
6841;DHT22;3458;53.678;14.080;2023-07-13T10:16:03;23.10;60.70
6841;DHT22;3458;53.678;14.080;2023-07-13T10:18:43;23.20;60.70
6841;DHT22;3458;53.678;14.080;2023-07-13T10:21:14;23.20;59.90
6841;DHT22;3458;53.678;14.080;2023-07-13T10:23:40;23.20;60.30
6841;DHT22;3458;53.678;14.080;2023-07-13T10:26:14;23.30;61.40
6841;DHT22;3458;53.678;14.080;2023-07-13T10:28:41;23.30;62.00
6841;DHT22;3458;53.678;14.080;2023-07-13T10:31:12;23.50;62.80
6841;DHT22;3458;53.678;14.080;2023-07-13T10:33:38;23.70;61.20
6841;DHT22;3458;53.678;14.080;2023-07-13T10:38:55;24.00;61.40
6841;DHT22;3458;53.678;14.080;2023-07-13T10:41:24;24.00;60.70
6841;DHT22;3458;53.678;14.080;2023-07-13T10:43:52;24.00;61.80
6841;DHT22;3458;53.678;14.080;2023-07-13T10:46:23;23.90;60.50
6841;DHT22;3458;53.678;14.080;2023-07-13T10:48:54;23.80;60.30
6841;DHT22;3458;53.678;14.080;2023-07-13T10:51:22;23.80;59.20
6841;DHT22;3458;53.678;14.080;2023-07-13T10:54:11;23.70;59.30
6841;DHT22;3458;53.678;14.080;2023-07-13T10:56:40;23.70;58.10
6841;DHT22;3458;53.678;14.080;2023-07-13T10:59:11;23.50;58.40
6841;DHT22;3458;53.678;14.080;2023-07-13T11:01:54;23.50;58.90
6841;DHT22;3458;53.678;14.080;2023-07-13T11:04:22;23.50;59.80
6841;DHT22;3458;53.678;14.080;2023-07-13T11:06:53;23.40;58.40
6841;DHT22;3458;53.678;14.080;2023-07-13T11:09:37;23.50;58.60
6841;DHT22;3458;53.678;14.080;2023-07-13T11:12:25;23.60;58.70
6841;DHT22;3458;53.678;14.080;2023-07-13T11:22:49;23.50;58.00
6841;DHT22;3458;53.678;14.080;2023-07-13T11:25:33;23.50;59.00
6841;DHT22;3458;53.678;14.080;2023-07-13T11:30:59;23.30;59.00
6841;DHT22;3458;53.678;14.080;2023-07-13T11:33:49;23.20;59.10
6841;DHT22;3458;53.678;14.080;2023-07-13T11:36:20;23.10;58.60
6841;DHT22;3458;53.678;14.080;2023-07-13T11:38:58;23.00;59.30
6841;DHT22;3458;53.678;14.080;2023-07-13T11:41:34;23.00;60.30
6841;DHT22;3458;53.678;14.080;2023-07-13T11:44:21;23.00;60.10
6841;DHT22;3458;53.678;14.080;2023-07-13T11:46:56;22.90;59.70
6841;DHT22;3458;53.678;14.080;2023-07-13T11:49:23;22.80;60.10
6841;DHT22;3458;53.678;14.080;2023-07-13T11:51:50;22.80;60.70
6841;DHT22;3458;53.678;14.080;2023-07-13T11:54:24;22.70;60.80
6841;DHT22;3458;53.678;14.080;2023-07-13T11:56:52;22.70;60.60
6841;DHT22;3458;53.678;14.080;2023-07-13T11:59:18;22.70;60.90
6841;DHT22;3458;53.678;14.080;2023-07-13T12:01:52;22.60;61.70
6841;DHT22;3458;53.678;14.080;2023-07-13T12:04:22;22.50;63.00
6841;DHT22;3458;53.678;14.080;2023-07-13T12:06:57;22.60;64.00
6841;DHT22;3458;53.678;14.080;2023-07-13T12:09:26;22.60;64.50
6841;DHT22;3458;53.678;14.080;2023-07-13T12:11:52;22.50;65.00
6841;DHT22;3458;53.678;14.080;2023-07-13T12:14:18;22.50;65.60
6841;DHT22;3458;53.678;14.080;2023-07-13T12:16:46;22.50;66.50
6841;DHT22;3458;53.678;14.080;2023-07-13T12:19:29;22.50;67.40
6841;DHT22;3458;53.678;14.080;2023-07-13T12:21:58;22.50;68.00
6841;DHT22;3458;53.678;14.080;2023-07-13T12:24:25;22.50;70.20
6841;DHT22;3458;53.678;14.080;2023-07-13T12:27:02;22.40;70.90
6841;DHT22;3458;53.678;14.080;2023-07-13T12:29:31;22.30;72.00
6841;DHT22;3458;53.678;14.080;2023-07-13T12:31:57;22.30;72.60
6841;DHT22;3458;53.678;14.080;2023-07-13T12:34:24;22.20;73.60
6841;DHT22;3458;53.678;14.080;2023-07-13T12:36:55;22.20;75.40
6841;DHT22;3458;53.678;14.080;2023-07-13T12:42:28;22.50;78.60
6841;DHT22;3458;53.678;14.080;2023-07-13T12:44:57;23.10;82.30
6841;DHT22;3458;53.678;14.080;2023-07-13T12:47:24;24.10;80.20
6841;DHT22;3458;53.678;14.080;2023-07-13T12:49:54;24.60;76.00
6841;DHT22;3458;53.678;14.080;2023-07-13T12:52:22;25.30;74.80
6841;DHT22;3458;53.678;14.080;2023-07-13T12:54:55;26.20;71.90
6841;DHT22;3458;53.678;14.080;2023-07-13T12:57:25;26.60;69.70
6841;DHT22;3458;53.678;14.080;2023-07-13T12:59:54;27.10;66.00
6841;DHT22;3458;53.678;14.080;2023-07-13T13:02:32;27.80;64.40
6841;DHT22;3458;53.678;14.080;2023-07-13T13:04:59;28.40;64.40
6841;DHT22;3458;53.678;14.080;2023-07-13T13:07:25;29.10;59.00
6841;DHT22;3458;53.678;14.080;2023-07-13T13:09:51;29.60;52.10
6841;DHT22;3458;53.678;14.080;2023-07-13T13:12:19;29.60;52.00
6841;DHT22;3458;53.678;14.080;2023-07-13T13:14:44;29.70;49.40
6841;DHT22;3458;53.678;14.080;2023-07-13T13:17:29;29.90;49.20
6841;DHT22;3458;53.678;14.080;2023-07-13T13:19:55;29.90;47.80
6841;DHT22;3458;53.678;14.080;2023-07-13T13:22:22;30.20;45.60
6841;DHT22;3458;53.678;14.080;2023-07-13T13:24:48;30.30;44.60
6841;DHT22;3458;53.678;14.080;2023-07-13T13:27:18;30.50;45.60
6841;DHT22;3458;53.678;14.080;2023-07-13T13:29:44;30.60;45.30
6841;DHT22;3458;53.678;14.080;2023-07-13T13:32:14;31.00;44.20
6841;DHT22;3458;53.678;14.080;2023-07-13T13:34:41;31.40;42.70
6841;DHT22;3458;53.678;14.080;2023-07-13T13:37:21;31.10;41.40
6841;DHT22;3458;53.678;14.080;2023-07-13T13:39:47;30.90;41.60
6841;DHT22;3458;53.678;14.080;2023-07-13T13:42:13;30.70;39.40
6841;DHT22;3458;53.678;14.080;2023-07-13T13:44:39;29.80;40.60
6841;DHT22;3458;53.678;14.080;2023-07-13T13:47:20;28.90;42.30
6841;DHT22;3458;53.678;14.080;2023-07-13T13:49:46;28.00;42.70
6841;DHT22;3458;53.678;14.080;2023-07-13T13:52:12;27.30;43.80
6841;DHT22;3458;53.678;14.080;2023-07-13T13:54:38;26.70;45.00
6841;DHT22;3458;53.678;14.080;2023-07-13T13:57:04;26.30;46.20
6841;DHT22;3458;53.678;14.080;2023-07-13T13:59:30;25.90;46.40
6841;DHT22;3458;53.678;14.080;2023-07-13T14:01:57;25.60;47.30
6841;DHT22;3458;53.678;14.080;2023-07-13T14:04:25;25.40;48.30
6841;DHT22;3458;53.678;14.080;2023-07-13T14:06:51;25.20;49.90
6841;DHT22;3458;53.678;14.080;2023-07-13T14:09:18;25.10;49.60
6841;DHT22;3458;53.678;14.080;2023-07-13T14:11:45;24.90;51.30
6841;DHT22;3458;53.678;14.080;2023-07-13T14:14:20;24.80;52.20
6841;DHT22;3458;53.678;14.080;2023-07-13T14:16:47;24.60;54.00
6841;DHT22;3458;53.678;14.080;2023-07-13T14:19:18;24.50;55.70
6841;DHT22;3458;53.678;14.080;2023-07-13T14:21:44;24.40;57.10
6841;DHT22;3458;53.678;14.080;2023-07-13T14:24:10;24.40;58.50
6841;DHT22;3458;53.678;14.080;2023-07-13T14:26:38;24.50;58.60
6841;DHT22;3458;53.678;14.080;2023-07-13T14:29:12;24.60;58.70
6841;DHT22;3458;53.678;14.080;2023-07-13T14:31:38;24.80;59.10
6841;DHT22;3458;53.678;14.080;2023-07-13T14:34:04;25.00;59.30
6841;DHT22;3458;53.678;14.080;2023-07-13T14:36:41;24.90;59.70
6841;DHT22;3458;53.678;14.080;2023-07-13T14:39:20;24.60;60.30
6841;DHT22;3458;53.678;14.080;2023-07-13T14:41:49;25.00;61.40
6841;DHT22;3458;53.678;14.080;2023-07-13T14:44:17;25.10;61.10
6841;DHT22;3458;53.678;14.080;2023-07-13T14:46:44;24.90;61.80
6841;DHT22;3458;53.678;14.080;2023-07-13T14:49:37;25.10;62.40
6841;DHT22;3458;53.678;14.080;2023-07-13T14:54:37;25.10;60.90
6841;DHT22;3458;53.678;14.080;2023-07-13T14:57:09;25.40;60.80
6841;DHT22;3458;53.678;14.080;2023-07-13T14:59:35;25.60;60.40
6841;DHT22;3458;53.678;14.080;2023-07-13T15:02:01;25.40;60.60
6841;DHT22;3458;53.678;14.080;2023-07-13T15:04:27;25.10;61.60
6841;DHT22;3458;53.678;14.080;2023-07-13T15:06:54;24.80;62.10
6841;DHT22;3458;53.678;14.080;2023-07-13T15:09:20;24.60;62.60
6841;DHT22;3458;53.678;14.080;2023-07-13T15:11:46;24.50;63.60
6841;DHT22;3458;53.678;14.080;2023-07-13T15:14:11;24.30;64.50
6841;DHT22;3458;53.678;14.080;2023-07-13T15:16:37;24.10;65.30
6841;DHT22;3458;53.678;14.080;2023-07-13T15:19:02;23.90;67.40
6841;DHT22;3458;53.678;14.080;2023-07-13T15:21:28;23.80;67.70
6841;DHT22;3458;53.678;14.080;2023-07-13T15:24:00;23.50;71.50
6841;DHT22;3458;53.678;14.080;2023-07-13T15:26:25;23.30;75.30
6841;DHT22;3458;53.678;14.080;2023-07-13T15:28:51;23.20;76.70
6841;DHT22;3458;53.678;14.080;2023-07-13T15:31:22;23.10;77.00
6841;DHT22;3458;53.678;14.080;2023-07-13T15:33:49;23.10;77.60
6841;DHT22;3458;53.678;14.080;2023-07-13T15:36:17;22.90;77.80
6841;DHT22;3458;53.678;14.080;2023-07-13T15:38:43;22.80;79.30
6841;DHT22;3458;53.678;14.080;2023-07-13T15:41:24;22.70;80.70
6841;DHT22;3458;53.678;14.080;2023-07-13T15:43:55;22.70;82.10
6841;DHT22;3458;53.678;14.080;2023-07-13T15:46:24;22.60;82.10
6841;DHT22;3458;53.678;14.080;2023-07-13T15:48:50;22.60;82.30
6841;DHT22;3458;53.678;14.080;2023-07-13T15:51:28;22.50;82.00
6841;DHT22;3458;53.678;14.080;2023-07-13T15:54:00;22.50;82.70
6841;DHT22;3458;53.678;14.080;2023-07-13T15:56:29;22.50;83.60
6841;DHT22;3458;53.678;14.080;2023-07-13T15:58:58;22.50;84.20
6841;DHT22;3458;53.678;14.080;2023-07-13T16:01:24;22.40;84.40
6841;DHT22;3458;53.678;14.080;2023-07-13T16:03:50;22.40;84.80
6841;DHT22;3458;53.678;14.080;2023-07-13T16:06:32;22.40;85.50
6841;DHT22;3458;53.678;14.080;2023-07-13T16:09:02;22.40;86.30
6841;DHT22;3458;53.678;14.080;2023-07-13T16:11:33;22.40;87.00
6841;DHT22;3458;53.678;14.080;2023-07-13T16:13:59;22.40;88.00
6841;DHT22;3458;53.678;14.080;2023-07-13T16:16:33;22.40;88.90
6841;DHT22;3458;53.678;14.080;2023-07-13T16:19:02;22.60;90.10